Flatbush, Canada
Current Conditions -  °F | °C
As of 3:23 AM on Tuesday 27 Jan 2015 (Local Time) from CYZH Reporting Station
Light Rain Light Rain  
Wind Chill: 26°   Ceiling: 1200
Heat Index: 32°   Visibility: 9mi
Dew Point: 32°   Wind: 6mph
Humidity: 100%   Direction: 290°WNW
Pressure: 29.81"   Gusts: NA
Location:  54.68°N, 114.15°W
Report Text: CYZH 271023Z AUTO 29005KT 9SM -RA BKN012 OVC055 00/00 A2981 RMK SLP118
Loading
Personal Weather Stations






























Interactive Weather Map New forecast layout! Learn more

10-Day Weather Forecast

Advertisements
Track Severe Weather on mobile